Time;durP1;ratioP1;P1;durP2;ratioP2;P2;SDS_P1;SDS_P2;PMS_P1;PMS_P2;Temp;Humidity;BMP_temperature;BMP_pressure;BME280_temperature;BME280_humidity;BME280_pressure;Samples;Min_cycle;Max_cycle;Signal;HPM_P1;HPM_P2
2023/05/20 00:01:26;;;;;;;18.17;16.77;;;13.70;99.90;;;;;;5071253;28;20462;-72
2023/05/20 00:03:53;;;;;;;18.50;17.37;;;13.70;99.90;;;;;;5071210;28;20510;-73
2023/05/20 00:06:20;;;;;;;18.77;17.27;;;13.60;99.90;;;;;;5071156;28;20450;-72
2023/05/20 00:08:46;;;;;;;19.33;18.00;;;13.70;99.90;;;;;;5071259;28;20447;-72
2023/05/20 00:11:13;;;;;;;18.30;17.00;;;13.60;99.90;;;;;;5071264;28;20857;-72
2023/05/20 00:13:41;;;;;;;17.73;16.83;;;13.60;99.90;;;;;;5070901;28;20454;-72
2023/05/20 00:16:08;;;;;;;18.43;16.90;;;13.60;99.90;;;;;;5070762;28;20490;-73
2023/05/20 00:18:35;;;;;;;17.27;16.10;;;13.70;99.90;;;;;;5070728;28;21000;-73
2023/05/20 00:21:01;;;;;;;18.53;17.13;;;13.70;99.90;;;;;;5070988;28;20443;-72
2023/05/20 00:23:28;;;;;;;17.10;15.73;;;13.70;99.90;;;;;;5071000;28;20447;-73
2023/05/20 00:25:55;;;;;;;18.47;17.13;;;13.80;99.90;;;;;;5070623;28;20982;-73
2023/05/20 00:28:22;;;;;;;16.23;15.33;;;13.80;99.90;;;;;;5070539;28;21216;-73
2023/05/20 03:46:19;;;;;;;21.60;20.43;;;12.40;99.90;;;;;;5127038;22;20493;-68
2023/05/20 03:48:46;;;;;;;21.80;20.43;;;12.50;99.90;;;;;;5031292;28;20547;-68
2023/05/20 03:51:13;;;;;;;21.30;20.20;;;12.50;99.90;;;;;;5031251;28;20453;-69
2023/05/20 03:53:39;;;;;;;20.20;19.00;;;12.60;99.90;;;;;;5031113;28;20811;-68
2023/05/20 03:56:06;;;;;;;20.00;18.80;;;12.70;99.90;;;;;;5030954;28;20453;-69
2023/05/20 03:58:34;;;;;;;21.47;19.97;;;12.70;99.90;;;;;;5030830;28;20938;-69
2023/05/20 04:01:00;;;;;;;19.67;18.67;;;12.80;99.90;;;;;;5031142;28;20546;-69
2023/05/20 04:03:28;;;;;;;19.00;18.00;;;12.90;99.90;;;;;;5031100;28;20449;-68
2023/05/20 04:05:55;;;;;;;19.63;18.37;;;13.00;99.90;;;;;;5030850;28;20997;-69
2023/05/20 04:08:24;;;;;;;20.97;19.60;;;13.00;99.90;;;;;;5030910;28;20468;-69
2023/05/20 04:10:51;;;;;;;19.30;18.30;;;13.10;99.90;;;;;;5030610;28;20511;-71
2023/05/20 04:13:18;;;;;;;19.30;18.30;;;13.10;99.90;;;;;;5030746;28;20452;-70
2023/05/20 04:15:45;;;;;;;18.50;17.60;;;13.20;99.90;;;;;;5030946;28;20477;-71
2023/05/20 04:18:12;;;;;;;19.80;18.53;;;13.30;99.90;;;;;;5030753;28;20445;-70
2023/05/20 04:20:41;;;;;;;20.30;19.23;;;13.30;99.90;;;;;;5030143;28;20580;-70
2023/05/20 04:23:07;;;;;;;19.00;18.00;;;13.30;99.90;;;;;;5030473;28;20506;-69
2023/05/20 04:25:34;;;;;;;19.30;18.30;;;13.30;99.90;;;;;;5030832;28;20453;-69
2023/05/20 04:28:01;;;;;;;19.97;18.77;;;13.50;99.90;;;;;;5030896;28;20463;-71
2023/05/20 04:30:28;;;;;;;19.87;18.63;;;13.60;99.90;;;;;;5030794;28;20449;-71
2023/05/20 04:32:55;;;;;;;18.77;17.77;;;13.80;99.90;;;;;;5030737;28;20547;-70
2023/05/20 04:35:24;;;;;;;19.40;18.40;;;13.90;99.90;;;;;;5030539;28;20449;-70
2023/05/20 04:37:54;;;;;;;19.60;18.40;;;13.90;99.90;;;;;;5030501;28;20860;-71
2023/05/20 04:40:21;;;;;;;19.03;17.93;;;13.90;99.90;;;;;;5030421;28;20485;-71
2023/05/20 04:42:48;;;;;;;17.80;17.00;;;14.00;99.90;;;;;;5030237;28;20821;-70
2023/05/20 04:45:15;;;;;;;18.00;16.93;;;14.10;99.90;;;;;;5030196;28;20491;-70
2023/05/20 04:47:43;;;;;;;16.20;15.30;;;14.30;99.90;;;;;;5030480;28;20456;-72
2023/05/20 07:33:05;;;;;;;15.10;14.40;;;24.00;92.10;;;;;;5448396;22;21013;-77
2023/05/20 07:35:32;;;;;;;15.00;14.20;;;24.10;92.20;;;;;;5029641;28;20460;-75
2023/05/20 07:37:59;;;;;;;16.13;15.20;;;23.80;91.90;;;;;;5029592;28;20591;-76
2023/05/20 07:40:26;;;;;;;15.83;14.97;;;23.50;92.50;;;;;;5026577;28;20503;-76
2023/05/20 07:42:52;;;;;;;15.60;14.70;;;23.50;92.90;;;;;;5030378;28;20456;-76
2023/05/20 07:45:19;;;;;;;17.83;16.93;;;23.20;93.00;;;;;;5029455;28;20450;-76
2023/05/20 07:47:46;;;;;;;15.70;14.80;;;22.90;93.10;;;;;;5029525;28;20857;-76
2023/05/20 07:50:14;;;;;;;15.67;14.63;;;22.20;94.50;;;;;;5029417;28;21006;-76
2023/05/20 07:52:41;;;;;;;15.33;14.50;;;22.00;94.90;;;;;;5029356;28;20457;-75
2023/05/20 07:55:08;;;;;;;15.00;14.10;;;21.60;95.90;;;;;;5029726;28;20448;-75
2023/05/20 07:57:35;;;;;;;14.43;13.63;;;21.30;96.00;;;;;;5028988;28;20464;-76
2023/05/20 08:00:01;;;;;;;14.47;13.77;;;21.10;96.70;;;;;;5029601;28;20687;-76
2023/05/20 08:02:29;;;;;;;17.23;16.33;;;20.80;97.40;;;;;;5029121;28;20477;-75
2023/05/20 08:04:56;;;;;;;16.00;15.20;;;20.90;98.10;;;;;;5027712;28;20457;-77
2023/05/20 08:07:24;;;;;;;17.13;16.23;;;21.60;97.60;;;;;;5029799;28;20467;-76
2023/05/20 08:09:51;;;;;;;16.00;15.10;;;22.30;95.60;;;;;;5029891;28;20894;-75
2023/05/20 08:15:08;;;;;;;16.80;15.80;;;22.60;95.30;;;;;;5021272;28;20445;-76
2023/05/20 08:17:35;;;;;;;15.63;14.93;;;22.80;94.60;;;;;;5029604;28;20472;-75
2023/05/20 08:20:02;;;;;;;15.67;14.67;;;22.70;94.80;;;;;;5029438;28;20982;-75
2023/05/20 08:22:30;;;;;;;15.70;14.87;;;22.60;95.50;;;;;;5029186;28;20441;-75
2023/05/20 08:24:57;;;;;;;15.53;14.83;;;23.00;94.80;;;;;;5029526;28;20444;-76
2023/05/20 08:27:23;;;;;;;17.07;16.17;;;23.30;94.20;;;;;;5029391;28;20980;-76
2023/05/20 08:29:50;;;;;;;16.07;15.20;;;22.90;93.90;;;;;;5029094;28;20480;-76
2023/05/20 08:32:17;;;;;;;16.17;15.30;;;22.80;94.10;;;;;;5028723;28;20549;-76
2023/05/20 08:34:44;;;;;;;17.10;16.20;;;22.80;94.60;;;;;;5029169;28;20985;-76
2023/05/20 08:37:10;;;;;;;16.47;15.53;;;23.10;94.10;;;;;;5029451;28;20479;-76
2023/05/20 08:39:38;;;;;;;16.70;15.90;;;23.70;93.10;;;;;;5029248;28;20559;-76
2023/05/20 08:42:06;;;;;;;16.60;15.70;;;23.50;92.80;;;;;;5029068;28;20457;-76
2023/05/20 08:44:34;;;;;;;16.67;15.87;;;23.20;92.90;;;;;;5029036;28;20535;-75
2023/05/20 08:47:02;;;;;;;16.80;16.00;;;22.80;93.70;;;;;;5028954;28;20437;-75
2023/05/20 08:49:29;;;;;;;15.67;14.93;;;23.00;93.70;;;;;;5028903;28;20461;-76
2023/05/20 08:51:56;;;;;;;14.77;14.07;;;23.70;92.80;;;;;;5028770;28;20544;-76
2023/05/20 08:54:25;;;;;;;16.60;15.70;;;24.40;91.90;;;;;;5026852;28;20479;-76
2023/05/20 08:56:54;;;;;;;16.53;15.73;;;24.70;90.80;;;;;;5028554;28;20448;-75
2023/05/20 08:59:22;;;;;;;16.30;15.60;;;24.90;90.10;;;;;;5028528;28;20499;-76
2023/05/20 09:01:48;;;;;;;16.77;15.87;;;24.50;91.00;;;;;;5023222;28;21053;-76
2023/05/20 09:04:16;;;;;;;16.20;15.40;;;24.70;90.70;;;;;;5027837;28;20869;-75
2023/05/20 09:06:43;;;;;;;16.10;15.30;;;24.50;90.60;;;;;;5028426;28;20457;-76
2023/05/20 09:09:11;;;;;;;16.67;15.97;;;24.30;90.50;;;;;;5027183;28;20934;-75
2023/05/20 09:11:37;;;;;;;15.37;14.70;;;23.90;91.30;;;;;;5026563;28;20484;-76
2023/05/20 09:14:06;;;;;;;15.33;14.63;;;23.90;91.50;;;;;;5028238;28;20831;-76
2023/05/20 09:16:32;;;;;;;17.00;16.00;;;24.60;91.20;;;;;;5027922;28;20535;-75
2023/05/20 09:18:59;;;;;;;17.20;16.40;;;25.70;90.00;;;;;;5028136;28;20464;-76
2023/05/20 09:21:27;;;;;;;16.23;15.47;;;26.50;85.90;;;;;;5028294;28;20456;-76
2023/05/20 09:23:56;;;;;;;17.53;16.73;;;26.70;85.10;;;;;;5028336;28;20464;-75
2023/05/20 09:26:23;;;;;;;17.10;16.20;;;26.80;84.20;;;;;;5028368;28;20556;-76
2023/05/20 09:28:50;;;;;;;16.63;15.80;;;26.80;84.10;;;;;;5028148;28;20802;-75
2023/05/20 09:31:18;;;;;;;16.90;16.00;;;26.90;82.80;;;;;;5028302;28;20961;-75
2023/05/20 09:33:45;;;;;;;18.17;17.17;;;27.90;81.60;;;;;;5028055;28;20665;-76
2023/05/20 09:36:12;;;;;;;16.30;15.60;;;28.70;79.60;;;;;;5028017;28;20444;-75
2023/05/20 09:38:40;;;;;;;16.97;16.13;;;29.70;73.90;;;;;;5028422;28;20452;-76
2023/05/20 09:41:08;;;;;;;18.27;17.20;;;29.10;74.10;;;;;;5028533;28;20957;-76
2023/05/20 09:43:36;;;;;;;17.10;16.30;;;27.80;76.70;;;;;;5028400;28;20885;-75
2023/05/20 09:46:04;;;;;;;17.30;16.50;;;28.00;76.70;;;;;;5028278;28;20507;-75
2023/05/20 09:48:32;;;;;;;17.93;17.13;;;27.80;77.70;;;;;;5028185;28;20572;-74
2023/05/20 09:51:01;;;;;;;17.00;16.20;;;28.10;76.70;;;;;;5028083;28;20497;-76
2023/05/20 09:53:28;;;;;;;16.70;15.90;;;26.90;78.30;;;;;;5027824;28;20457;-75
2023/05/20 09:55:55;;;;;;;16.07;15.17;;;26.50;81.30;;;;;;5026985;28;20563;-76
2023/05/20 09:58:22;;;;;;;16.90;16.10;;;26.60;80.70;;;;;;5025806;28;20543;-76
2023/05/20 10:00:49;;;;;;;15.53;14.83;;;27.00;80.60;;;;;;5027792;28;20485;-76
2023/05/20 10:03:17;;;;;;;17.23;16.43;;;26.60;80.30;;;;;;5022704;28;20471;-75
2023/05/20 10:05:54;;;;;;;16.63;15.90;;;26.90;81.60;;;;;;5027414;28;20645;-75
2023/05/20 10:08:48;;;;;;;17.30;16.50;;;28.20;79.50;;;;;;5028004;28;20456;-74
2023/05/20 10:11:30;;;;;;;18.70;17.80;;;29.90;73.00;;;;;;5027762;28;20493;-74
2023/05/20 10:14:22;;;;;;;17.20;16.30;;;29.90;69.90;;;;;;5027730;28;20444;-75
2023/05/20 10:16:54;;;;;;;17.30;16.60;;;29.70;70.40;;;;;;5026036;28;20457;-74
2023/05/20 10:19:29;;;;;;;17.53;16.63;;;28.30;74.10;;;;;;5028379;28;20938;-75
2023/05/20 10:22:01;;;;;;;17.40;16.50;;;27.80;75.20;;;;;;5031670;28;20463;-75
2023/05/20 10:24:32;;;;;;;16.80;16.10;;;28.00;76.20;;;;;;5031638;28;20957;-75
2023/05/20 10:27:01;;;;;;;17.30;16.50;;;27.50;75.40;;;;;;5024390;28;20795;-75
2023/05/20 10:29:28;;;;;;;16.93;16.03;;;26.70;77.60;;;;;;5013826;28;20456;-75
2023/05/20 10:31:55;;;;;;;16.73;16.03;;;26.80;78.60;;;;;;5031170;28;20488;-75
2023/05/20 10:34:23;;;;;;;17.07;16.27;;;26.80;78.10;;;;;;5031354;28;20459;-75
2023/05/20 10:37:00;;;;;;;17.10;16.30;;;27.10;78.00;;;;;;5030896;28;20456;-75
2023/05/20 10:39:28;;;;;;;19.07;18.13;;;26.50;78.30;;;;;;5030335;28;20452;-75
2023/05/20 10:42:06;;;;;;;17.47;16.33;;;26.30;79.50;;;;;;5031214;28;20540;-75
2023/05/20 10:44:41;;;;;;;17.53;16.43;;;25.70;81.00;;;;;;5011878;28;20457;-75
2023/05/20 10:47:08;;;;;;;17.50;16.60;;;25.60;82.30;;;;;;5011536;28;20960;-75
2023/05/20 10:49:35;;;;;;;16.73;16.00;;;26.20;80.30;;;;;;5015188;28;20468;-75
2023/05/20 10:52:04;;;;;;;17.73;16.80;;;26.60;78.20;;;;;;5031126;28;20484;-78
2023/05/20 10:54:36;;;;;;;20.60;19.20;;;27.10;76.90;;;;;;5030926;28;20461;-77
2023/05/20 10:57:07;;;;;;;16.87;16.13;;;26.70;76.70;;;;;;5029473;28;20536;-76
2023/05/20 10:59:34;;;;;;;16.50;15.70;;;27.00;76.10;;;;;;5030572;28;20453;-77
2023/05/20 11:02:01;;;;;;;16.80;15.93;;;27.60;74.30;;;;;;5030770;28;20459;-77
2023/05/20 11:04:29;;;;;;;15.93;15.23;;;28.80;72.00;;;;;;5030715;28;20460;-76
2023/05/20 11:06:57;;;;;;;16.13;15.33;;;29.60;67.80;;;;;;5031070;28;21013;-78
2023/05/20 11:09:25;;;;;;;16.00;15.30;;;29.30;67.30;;;;;;5031293;28;20477;-78
2023/05/20 11:11:53;;;;;;;16.07;15.37;;;28.30;70.00;;;;;;5031241;28;20495;-76
2023/05/20 11:14:21;;;;;;;16.37;15.40;;;27.50;72.00;;;;;;5031352;28;20578;-78
2023/05/20 11:16:52;;;;;;;15.80;15.10;;;27.70;71.30;;;;;;5030580;28;20453;-76
2023/05/20 11:19:20;;;;;;;15.17;14.57;;;27.50;72.10;;;;;;5030726;28;20892;-77
2023/05/20 11:21:47;;;;;;;15.70;15.00;;;28.10;71.20;;;;;;5030800;28;20441;-78
2023/05/20 11:24:15;;;;;;;16.13;15.33;;;28.30;69.40;;;;;;5030520;28;20453;-77
2023/05/20 11:26:43;;;;;;;15.53;14.83;;;28.10;69.90;;;;;;5030972;28;20453;-78
2023/05/20 11:29:10;;;;;;;16.43;15.57;;;27.90;70.20;;;;;;5027839;28;20476;-77
2023/05/20 11:31:38;;;;;;;15.10;14.50;;;28.10;70.70;;;;;;5030431;28;20887;-75
2023/05/20 11:34:05;;;;;;;15.00;14.40;;;28.30;68.80;;;;;;5031181;28;20479;-76
2023/05/20 11:36:32;;;;;;;15.23;14.53;;;28.50;69.40;;;;;;5028244;28;20440;-77
2023/05/20 11:38:59;;;;;;;15.20;14.30;;;28.80;68.00;;;;;;5029970;28;20519;-76
2023/05/20 11:41:27;;;;;;;16.27;15.47;;;28.80;67.40;;;;;;5030041;28;20556;-76
2023/05/20 11:43:59;;;;;;;15.80;14.87;;;29.10;68.10;;;;;;5030581;28;20563;-76
2023/05/20 11:46:26;;;;;;;15.77;14.97;;;28.40;69.80;;;;;;5030391;28;20455;-77
2023/05/20 11:48:54;;;;;;;15.60;14.70;;;27.70;70.60;;;;;;5030743;28;20449;-78
2023/05/20 11:51:24;;;;;;;15.40;14.70;;;27.10;71.20;;;;;;5029939;28;20579;-77
2023/05/20 11:53:51;;;;;;;15.67;15.03;;;26.90;72.40;;;;;;5030453;28;20445;-77
2023/05/20 11:56:17;;;;;;;16.33;15.63;;;27.30;71.80;;;;;;5030319;28;20528;-79
2023/05/20 11:58:44;;;;;;;15.70;15.00;;;27.60;70.70;;;;;;5029953;28;20455;-76
2023/05/20 12:01:12;;;;;;;15.50;14.70;;;27.30;72.60;;;;;;5030068;28;20587;-76
2023/05/20 12:03:39;;;;;;;15.97;15.27;;;27.50;71.00;;;;;;5030674;28;20456;-79
2023/05/20 12:06:06;;;;;;;16.40;15.70;;;27.20;71.10;;;;;;5030581;28;20495;-77
2023/05/20 12:08:32;;;;;;;15.03;14.43;;;27.30;72.20;;;;;;5030294;28;20864;-77
2023/05/20 12:10:59;;;;;;;15.87;15.17;;;27.60;72.40;;;;;;5029724;28;20480;-77
2023/05/20 12:13:26;;;;;;;16.63;15.60;;;28.30;70.20;;;;;;5029975;28;20510;-77
2023/05/20 12:15:52;;;;;;;17.00;16.20;;;29.10;68.00;;;;;;5029749;28;20449;-78
2023/05/20 12:18:22;;;;;;;16.47;15.67;;;29.50;66.80;;;;;;5029277;28;20453;-78
2023/05/20 12:20:48;;;;;;;16.87;16.07;;;29.20;66.20;;;;;;5030051;28;20939;-78
2023/05/20 12:23:15;;;;;;;15.60;15.00;;;29.10;67.00;;;;;;5029997;28;20854;-77
2023/05/20 12:25:44;;;;;;;15.73;15.13;;;29.20;65.80;;;;;;5029810;28;20472;-77
2023/05/20 12:28:11;;;;;;;15.40;14.80;;;29.60;65.20;;;;;;5029856;28;20951;-76
2023/05/20 12:30:37;;;;;;;16.33;15.63;;;29.80;62.40;;;;;;5030042;28;20946;-76
2023/05/20 12:33:05;;;;;;;16.10;15.40;;;30.10;62.00;;;;;;5029956;28;20891;-76
2023/05/20 12:35:40;;;;;;;16.90;16.10;;;29.20;62.70;;;;;;5024614;28;20935;-76
2023/05/20 12:38:07;;;;;;;15.90;15.20;;;29.40;63.20;;;;;;5029831;28;20452;-77
2023/05/20 12:40:35;;;;;;;15.50;14.90;;;29.10;64.80;;;;;;5029698;28;20453;-76
2023/05/20 12:43:02;;;;;;;15.47;14.87;;;29.20;64.60;;;;;;5029215;28;20472;-75
2023/05/20 12:45:29;;;;;;;15.37;14.70;;;29.30;65.10;;;;;;5029870;28;20465;-76
2023/05/20 12:47:56;;;;;;;16.50;15.90;;;29.60;64.10;;;;;;5029787;28;20553;-76
2023/05/20 12:50:24;;;;;;;15.90;15.30;;;29.20;64.10;;;;;;5029885;28;20458;-75
2023/05/20 12:52:52;;;;;;;15.20;14.50;;;29.40;65.10;;;;;;5029384;28;20480;-75
2023/05/20 12:55:19;;;;;;;17.10;16.30;;;30.40;62.10;;;;;;5027351;28;20838;-76
2023/05/20 12:57:47;;;;;;;15.93;15.23;;;30.40;61.70;;;;;;5027248;28;20456;-77
2023/05/20 13:00:14;;;;;;;15.23;14.63;;;30.50;62.50;;;;;;5028645;28;20448;-76
2023/05/20 13:02:42;;;;;;;16.07;15.33;;;29.80;62.90;;;;;;5029037;28;20449;-76
2023/05/20 13:05:10;;;;;;;16.13;15.33;;;28.80;64.60;;;;;;5029258;28;20468;-75
2023/05/20 13:07:36;;;;;;;15.90;15.00;;;29.10;65.20;;;;;;5029741;28;20547;-76
2023/05/20 13:10:06;;;;;;;16.63;15.93;;;30.80;60.90;;;;;;5029095;28;20460;-77
2023/05/20 13:12:35;;;;;;;15.80;15.10;;;31.30;58.90;;;;;;5029104;28;20488;-77
2023/05/20 13:15:02;;;;;;;17.17;15.60;;;30.60;59.10;;;;;;5029091;28;20451;-77
2023/05/20 13:17:28;;;;;;;18.67;17.73;;;30.70;60.00;;;;;;5029215;28;20904;-77
2023/05/20 13:19:55;;;;;;;15.80;15.10;;;31.40;60.00;;;;;;5029346;28;21024;-75
2023/05/20 13:22:22;;;;;;;16.90;16.10;;;31.90;59.30;;;;;;5029199;28;20449;-74
2023/05/20 13:24:49;;;;;;;15.40;14.80;;;30.70;58.50;;;;;;5028829;28;20472;-76
2023/05/20 13:27:17;;;;;;;15.80;15.07;;;29.00;62.80;;;;;;5029020;28;20457;-75
2023/05/20 13:29:43;;;;;;;16.63;15.83;;;28.00;65.30;;;;;;5029128;28;20522;-75
2023/05/20 13:32:10;;;;;;;16.37;15.57;;;27.40;67.10;;;;;;5028667;28;20863;-75
2023/05/20 13:34:37;;;;;;;15.80;15.10;;;26.80;67.90;;;;;;5028904;28;20456;-76
2023/05/20 13:37:04;;;;;;;15.13;14.40;;;26.90;69.70;;;;;;5028756;28;20543;-76
2023/05/20 13:39:30;;;;;;;15.10;14.50;;;27.90;66.20;;;;;;5028949;28;20460;-75
2023/05/20 13:41:58;;;;;;;15.63;14.60;;;28.60;64.20;;;;;;5028723;28;20449;-76
2023/05/20 13:44:26;;;;;;;16.73;16.03;;;29.30;62.60;;;;;;5028974;28;20815;-76
2023/05/20 13:46:53;;;;;;;16.57;15.67;;;29.60;63.20;;;;;;5028851;28;20475;-76
2023/05/20 13:49:20;;;;;;;16.57;15.70;;;29.70;61.60;;;;;;5028463;28;20445;-75
2023/05/20 13:51:47;;;;;;;14.90;14.30;;;29.60;62.40;;;;;;5028764;28;20550;-76
2023/05/20 13:54:13;;;;;;;14.73;14.20;;;29.10;62.70;;;;;;5030987;28;20856;-76
2023/05/20 13:56:40;;;;;;;15.60;14.90;;;29.10;62.80;;;;;;5032956;28;20449;-76
2023/05/20 13:59:06;;;;;;;16.00;15.23;;;28.80;64.40;;;;;;5032947;28;21025;-76
2023/05/20 14:01:35;;;;;;;16.00;15.30;;;28.40;64.70;;;;;;5026889;28;20982;-76
2023/05/20 14:04:01;;;;;;;15.40;14.80;;;28.70;64.50;;;;;;5031068;28;20537;-76
2023/05/20 14:06:30;;;;;;;15.33;14.70;;;28.50;65.20;;;;;;5029762;28;20449;-75
2023/05/20 14:08:57;;;;;;;18.20;16.47;;;28.00;66.60;;;;;;5030269;28;20981;-75
2023/05/20 14:11:24;;;;;;;16.03;15.23;;;27.90;66.10;;;;;;5030323;28;20511;-75
2023/05/20 14:13:50;;;;;;;16.10;15.40;;;28.20;65.60;;;;;;5030360;28;20441;-76
2023/05/20 14:16:17;;;;;;;15.50;14.80;;;28.30;66.10;;;;;;5029972;28;20471;-76
2023/05/20 14:18:45;;;;;;;15.67;15.07;;;28.00;66.60;;;;;;5030117;28;20471;-76
2023/05/20 14:21:12;;;;;;;14.37;13.63;;;27.60;66.30;;;;;;5031010;28;20516;-75
2023/05/20 14:23:39;;;;;;;14.90;14.30;;;27.10;66.30;;;;;;5030833;28;20452;-75
2023/05/20 14:26:06;;;;;;;15.20;14.53;;;26.70;67.30;;;;;;5031077;28;20566;-75
2023/05/20 14:28:33;;;;;;;15.33;14.70;;;26.60;69.60;;;;;;5030428;28;20453;-75
2023/05/20 14:30:59;;;;;;;15.90;15.30;;;26.40;67.60;;;;;;5030465;28;20472;-75
2023/05/20 14:33:26;;;;;;;15.00;14.30;;;26.60;67.90;;;;;;5030400;28;20477;-75
2023/05/20 14:35:54;;;;;;;15.30;14.60;;;27.00;68.40;;;;;;5030773;28;20445;-75
2023/05/20 14:38:21;;;;;;;15.70;14.90;;;27.30;67.10;;;;;;5030087;28;20433;-77
2023/05/20 14:40:47;;;;;;;14.10;13.50;;;27.30;68.30;;;;;;5029245;28;20565;-78
2023/05/20 14:43:15;;;;;;;15.03;14.33;;;27.20;68.30;;;;;;5031270;28;20506;-78
2023/05/20 14:45:41;;;;;;;15.60;14.87;;;27.10;67.90;;;;;;5031838;28;20534;-78
2023/05/20 14:48:09;;;;;;;14.57;13.87;;;26.90;68.50;;;;;;5031911;28;20466;-79
2023/05/20 14:50:36;;;;;;;13.57;12.80;;;26.80;68.90;;;;;;5032019;28;20457;-78
2023/05/20 14:53:04;;;;;;;14.90;14.20;;;26.50;69.60;;;;;;5031245;28;20484;-78
2023/05/20 14:55:31;;;;;;;13.77;13.27;;;26.10;71.10;;;;;;5031398;28;20456;-78
2023/05/20 14:57:57;;;;;;;14.87;14.20;;;26.10;70.30;;;;;;5031386;28;20449;-78
2023/05/20 15:00:24;;;;;;;14.50;13.80;;;25.70;69.30;;;;;;5031702;28;20453;-77
2023/05/20 15:02:52;;;;;;;14.60;14.00;;;25.60;70.50;;;;;;5031499;28;20452;-80
2023/05/20 15:05:18;;;;;;;14.17;13.57;;;25.40;71.40;;;;;;5030810;28;20870;-81
2023/05/20 15:07:45;;;;;;;15.10;14.00;;;25.30;72.40;;;;;;5031762;28;20461;-78
2023/05/20 15:10:13;;;;;;;15.57;14.77;;;25.40;72.20;;;;;;5031392;28;20461;-80
2023/05/20 15:12:40;;;;;;;15.00;14.40;;;25.40;72.70;;;;;;5031193;28;20546;-79
2023/05/20 15:15:08;;;;;;;14.63;13.90;;;25.70;72.10;;;;;;5031273;28;20468;-79
2023/05/20 15:17:35;;;;;;;14.80;14.07;;;25.50;71.20;;;;;;5031366;28;20503;-79
2023/05/20 15:20:02;;;;;;;14.43;13.80;;;25.40;72.60;;;;;;5030988;28;20507;-78
2023/05/20 15:22:29;;;;;;;13.90;13.10;;;25.40;73.00;;;;;;5031126;28;20896;-78
2023/05/20 15:24:56;;;;;;;14.53;13.83;;;25.30;73.20;;;;;;5031252;28;20961;-78
2023/05/20 15:27:24;;;;;;;14.70;14.00;;;25.30;73.60;;;;;;5031437;28;20460;-79
2023/05/20 15:29:50;;;;;;;14.07;13.47;;;25.30;72.90;;;;;;5031318;28;20449;-78
2023/05/20 15:32:18;;;;;;;14.27;13.17;;;25.30;73.20;;;;;;5030477;28;20493;-78
2023/05/20 15:34:45;;;;;;;13.70;13.10;;;25.40;73.60;;;;;;5030853;28;20488;-78
2023/05/20 15:37:12;;;;;;;15.13;14.43;;;25.60;73.10;;;;;;5030510;28;20453;-78
2023/05/20 15:39:38;;;;;;;14.77;13.97;;;25.70;73.80;;;;;;5030816;28;20453;-79
2023/05/20 15:42:06;;;;;;;14.30;13.60;;;25.40;74.60;;;;;;5030704;28;20456;-78
2023/05/20 15:44:34;;;;;;;14.90;14.13;;;25.40;74.10;;;;;;5030412;28;20536;-79
2023/05/20 15:47:04;;;;;;;15.50;14.77;;;25.40;73.50;;;;;;5030937;28;20571;-78
2023/05/20 15:49:31;;;;;;;15.13;14.23;;;25.60;74.40;;;;;;5030625;28;20488;-78
2023/05/20 15:51:57;;;;;;;15.57;14.70;;;25.40;73.40;;;;;;5030712;28;20492;-79
2023/05/20 15:54:24;;;;;;;15.30;14.60;;;25.40;74.00;;;;;;5031087;28;20460;-79
2023/05/20 15:56:51;;;;;;;14.47;13.77;;;25.60;73.80;;;;;;5031194;28;20453;-79
2023/05/20 15:59:17;;;;;;;14.67;13.93;;;25.60;74.40;;;;;;5030665;28;20459;-79
2023/05/20 16:01:45;;;;;;;14.90;14.20;;;25.60;74.60;;;;;;5030445;28;20457;-79
2023/05/20 16:04:12;;;;;;;15.30;14.40;;;25.80;74.30;;;;;;5030999;28;20449;-79
2023/05/20 16:06:39;;;;;;;14.57;13.97;;;25.90;73.10;;;;;;5030983;28;20582;-79
2023/05/20 16:09:05;;;;;;;15.70;15.00;;;25.80;73.40;;;;;;5030970;28;20507;-78
2023/05/20 16:11:32;;;;;;;16.20;15.40;;;25.90;73.20;;;;;;5030509;28;20444;-79
2023/05/20 16:13:59;;;;;;;15.10;14.20;;;26.00;73.60;;;;;;5030356;28;20502;-79
2023/05/20 16:16:26;;;;;;;15.73;14.93;;;25.90;74.00;;;;;;5030009;28;20449;-79
2023/05/20 16:18:54;;;;;;;14.67;13.80;;;25.90;74.00;;;;;;5030098;28;20954;-78
2023/05/20 16:21:20;;;;;;;14.50;13.90;;;25.40;73.80;;;;;;5030592;28;20445;-77
2023/05/20 16:23:47;;;;;;;15.00;14.30;;;25.30;75.50;;;;;;5030672;28;20962;-79
2023/05/20 16:26:14;;;;;;;15.27;14.47;;;25.30;75.30;;;;;;5030334;28;20460;-79
2023/05/20 16:28:40;;;;;;;15.37;14.60;;;25.30;76.70;;;;;;5030324;28;20543;-79
2023/05/20 16:31:07;;;;;;;15.70;14.90;;;25.40;76.10;;;;;;5030145;28;20469;-80
2023/05/20 16:33:34;;;;;;;14.80;14.10;;;25.60;76.00;;;;;;5029618;28;20860;-78
2023/05/20 16:36:02;;;;;;;16.00;15.00;;;25.70;75.60;;;;;;5029504;28;20449;-77
2023/05/20 16:38:31;;;;;;;15.10;14.43;;;25.70;75.50;;;;;;5029196;28;20463;-79
2023/05/20 16:40:57;;;;;;;15.80;15.00;;;25.60;74.90;;;;;;5029473;28;20464;-77
2023/05/20 16:43:24;;;;;;;15.57;14.77;;;25.60;75.00;;;;;;5029894;28;20441;-78
2023/05/20 16:45:51;;;;;;;15.23;14.53;;;25.60;75.60;;;;;;5029407;28;20792;-78
2023/05/20 16:48:17;;;;;;;15.13;14.43;;;25.60;75.30;;;;;;5029449;28;20868;-76
2023/05/20 16:50:44;;;;;;;13.50;12.90;;;25.70;75.00;;;;;;5029924;28;20853;-79
2023/05/20 16:53:12;;;;;;;17.97;16.87;;;25.70;75.60;;;;;;5030227;28;20852;-79
2023/05/20 16:55:39;;;;;;;15.53;14.73;;;25.70;75.20;;;;;;5030549;28;20445;-80
2023/05/20 16:58:06;;;;;;;15.30;14.20;;;25.60;74.30;;;;;;5030022;28;20918;-75
2023/05/20 17:00:32;;;;;;;14.07;13.30;;;25.50;74.30;;;;;;5023219;28;20446;-80
2023/05/20 17:02:59;;;;;;;14.90;14.10;;;25.40;74.90;;;;;;5013958;28;20463;-80
2023/05/20 17:05:26;;;;;;;16.83;15.70;;;25.50;75.70;;;;;;5019787;28;20842;-80
2023/05/20 17:07:54;;;;;;;15.73;15.00;;;25.50;77.20;;;;;;5019316;28;20542;-79
2023/05/20 17:10:22;;;;;;;16.70;15.80;;;25.50;77.90;;;;;;5019127;28;20442;-80
2023/05/20 17:12:49;;;;;;;16.60;15.80;;;25.30;79.20;;;;;;5016517;28;20540;-80
2023/05/20 17:15:16;;;;;;;17.93;16.97;;;25.30;78.80;;;;;;5018111;28;20460;-80
2023/05/20 17:17:42;;;;;;;15.83;15.00;;;25.20;79.30;;;;;;5018165;28;20457;-80
2023/05/20 17:20:10;;;;;;;17.57;16.57;;;25.30;79.20;;;;;;5017721;28;20452;-80
2023/05/20 17:22:37;;;;;;;16.50;15.70;;;25.30;79.40;;;;;;5021443;28;20547;-79
2023/05/20 17:25:04;;;;;;;14.70;14.10;;;25.40;79.30;;;;;;5028435;28;20900;-80
2023/05/20 17:27:32;;;;;;;16.83;15.93;;;25.30;79.90;;;;;;5029521;28;20445;-80
2023/05/20 17:29:59;;;;;;;18.10;17.20;;;25.10;83.40;;;;;;5028581;28;20491;-79
2023/05/20 17:32:26;;;;;;;19.30;18.20;;;24.90;86.10;;;;;;5029053;28;20532;-80
2023/05/20 17:34:52;;;;;;;18.97;17.67;;;24.60;88.20;;;;;;5028872;28;20457;-80
2023/05/20 17:37:19;;;;;;;17.70;16.73;;;24.40;90.10;;;;;;5029929;28;20452;-80
2023/05/20 17:39:47;;;;;;;19.03;17.87;;;24.30;90.50;;;;;;5029450;28;20801;-81
2023/05/20 17:42:14;;;;;;;18.60;17.60;;;24.20;91.10;;;;;;5028856;28;20460;-80
2023/05/20 17:44:42;;;;;;;17.53;16.70;;;24.10;91.50;;;;;;5029129;28;20530;-80
2023/05/20 17:47:09;;;;;;;18.63;17.13;;;24.10;92.00;;;;;;5029534;28;20460;-79
2023/05/20 17:49:35;;;;;;;18.40;17.33;;;24.00;92.40;;;;;;5029262;28;20453;-79
2023/05/20 17:52:02;;;;;;;18.93;17.60;;;24.00;92.80;;;;;;5029140;28;20465;-80
2023/05/20 17:54:29;;;;;;;19.37;18.10;;;23.80;93.30;;;;;;5028896;28;20464;-80
2023/05/20 17:56:55;;;;;;;18.43;17.37;;;23.70;93.80;;;;;;5028674;28;20812;-81
2023/05/20 17:59:22;;;;;;;17.80;16.70;;;23.70;94.20;;;;;;5029295;28;20457;-80
2023/05/20 18:01:51;;;;;;;19.40;18.13;;;23.70;94.50;;;;;;5028978;28;20515;-80
2023/05/20 18:04:20;;;;;;;19.07;17.90;;;23.60;94.80;;;;;;5023206;28;20477;-81
2023/05/20 18:06:46;;;;;;;19.00;18.03;;;23.50;95.20;;;;;;5028582;28;20539;-80
2023/05/20 18:09:13;;;;;;;19.33;18.13;;;23.50;95.40;;;;;;5029682;28;20938;-80
2023/05/20 18:11:40;;;;;;;18.70;17.20;;;23.40;95.60;;;;;;5027941;28;20449;-79
2023/05/20 18:14:07;;;;;;;18.90;17.80;;;23.30;95.80;;;;;;5026830;28;20550;-79
2023/05/20 18:16:34;;;;;;;19.10;17.70;;;23.20;96.10;;;;;;5026215;28;20449;-80
2023/05/20 18:19:02;;;;;;;18.97;17.70;;;23.20;96.20;;;;;;5029399;28;20951;-79
2023/05/20 18:21:29;;;;;;;19.80;18.60;;;23.20;96.40;;;;;;5028337;28;20464;-79
2023/05/20 18:23:56;;;;;;;20.80;19.57;;;23.00;96.80;;;;;;5028269;28;20445;-79
2023/05/20 18:26:22;;;;;;;19.93;18.73;;;22.90;97.00;;;;;;5028159;28;20453;-78
2023/05/20 18:28:49;;;;;;;19.37;18.27;;;22.90;97.40;;;;;;5028894;28;20445;-79
2023/05/20 18:31:16;;;;;;;19.07;18.07;;;22.80;97.60;;;;;;5028743;28;20575;-79